createdAt,value
2018-02-13T00:02:21.160Z,2.20
2018-02-13T00:04:48.834Z,2.23
2018-02-13T00:07:16.494Z,2.17
2018-02-13T00:09:44.194Z,2.13
2018-02-13T00:12:11.857Z,2.14
2018-02-13T00:14:39.880Z,1.84
2018-02-13T00:17:07.547Z,2.04
2018-02-13T00:19:35.231Z,1.96
2018-02-13T00:22:02.924Z,1.97
2018-02-13T00:24:30.594Z,1.93
2018-02-13T00:26:58.513Z,1.96
2018-02-13T00:29:26.174Z,1.91
2018-02-13T00:31:53.851Z,1.93
2018-02-13T00:34:21.552Z,1.84
2018-02-13T00:36:49.216Z,1.84
2018-02-13T00:39:16.908Z,1.84
2018-02-13T00:41:44.573Z,1.73
2018-02-13T00:44:12.235Z,1.58
2018-02-13T00:46:39.943Z,1.66
2018-02-13T00:49:07.641Z,1.65
2018-02-13T00:51:35.386Z,1.65
2018-02-13T00:54:03.055Z,1.74
2018-02-13T00:56:30.726Z,1.64
2018-02-13T00:58:58.420Z,1.31
2018-02-13T01:01:26.103Z,1.52
2018-02-13T01:03:54.043Z,1.56
2018-02-13T01:06:21.712Z,1.51
2018-02-13T01:08:49.381Z,1.56
2018-02-13T01:11:18.054Z,1.56
2018-02-13T01:13:45.724Z,1.57
2018-02-13T01:16:13.587Z,1.65
2018-02-13T01:18:41.271Z,1.63
2018-02-13T01:21:09.021Z,1.34
2018-02-13T01:23:36.717Z,1.20
2018-02-13T01:26:04.381Z,1.17
2018-02-13T01:28:32.417Z,1.24
2018-02-13T01:31:00.098Z,1.27
2018-02-13T01:33:27.768Z,1.30
2018-02-13T01:35:55.504Z,1.28
2018-02-13T01:38:23.172Z,1.29
2018-02-13T01:40:51.023Z,1.28
2018-02-13T01:43:18.684Z,1.31
2018-02-13T01:45:46.341Z,1.34
2018-02-13T01:48:14.033Z,1.30
2018-02-13T01:50:41.698Z,1.23
2018-02-13T01:53:09.634Z,1.21
2018-02-13T01:55:37.294Z,1.30
2018-02-13T01:58:04.952Z,1.29
2018-02-13T02:00:32.655Z,1.23
2018-02-13T02:03:00.319Z,1.15
2018-02-13T02:05:28.011Z,1.05
2018-02-13T02:07:55.679Z,1.14
2018-02-13T02:10:23.360Z,1.12
2018-02-13T02:12:51.062Z,1.13
2018-02-13T02:15:18.737Z,1.08
2018-02-13T02:17:46.448Z,1.10
2018-02-13T02:20:14.119Z,1.06
2018-02-13T02:22:41.788Z,1.06
2018-02-13T02:25:09.480Z,1.08
2018-02-13T02:27:37.155Z,1.07
2018-02-13T02:30:05.102Z,1.01
2018-02-13T02:32:32.892Z,1.06
2018-02-13T02:35:00.562Z,0.98
2018-02-13T02:37:28.246Z,1.04
2018-02-13T02:39:55.923Z,0.89
2018-02-13T02:42:23.812Z,0.88
2018-02-13T02:44:51.492Z,0.81
2018-02-13T02:47:19.152Z,0.82
2018-02-13T02:49:46.847Z,0.87
2018-02-13T02:52:14.518Z,0.81
2018-02-13T02:54:42.229Z,0.80
2018-02-13T02:57:09.931Z,0.86
2018-02-13T02:59:37.609Z,0.87
2018-02-13T03:02:05.299Z,0.87
2018-02-13T03:04:32.972Z,0.95
2018-02-13T03:07:00.939Z,0.84
2018-02-13T03:09:28.637Z,0.71
2018-02-13T03:11:56.299Z,0.75
2018-02-13T03:14:24.038Z,0.67
2018-02-13T03:16:51.703Z,0.60
2018-02-13T03:19:19.769Z,0.63
2018-02-13T03:21:47.441Z,0.65
2018-02-13T03:24:15.121Z,0.53
2018-02-13T03:26:42.808Z,0.50
2018-02-13T03:29:10.471Z,0.46
2018-02-13T03:31:38.379Z,0.49
2018-02-13T03:34:06.061Z,0.49
2018-02-13T03:36:33.733Z,0.46
2018-02-13T03:39:01.428Z,0.48
2018-02-13T03:41:29.097Z,0.40
2018-02-13T03:43:56.803Z,0.34
2018-02-13T03:46:24.478Z,0.34
2018-02-13T03:48:52.143Z,0.46
2018-02-13T03:51:19.833Z,0.55
2018-02-13T03:53:47.503Z,0.55
2018-02-13T03:56:16.651Z,0.46
2018-02-13T03:58:44.344Z,0.45
2018-02-13T04:01:12.009Z,0.48
2018-02-13T04:03:39.694Z,0.31
2018-02-13T04:06:07.360Z,0.34
2018-02-13T04:08:35.265Z,0.33
2018-02-13T04:11:02.928Z,0.41
2018-02-13T04:13:30.600Z,0.43
2018-02-13T04:15:58.285Z,0.34
2018-02-13T04:18:25.959Z,0.29
2018-02-13T04:20:53.880Z,0.02
2018-02-13T04:23:21.548Z,0.09
2018-02-13T04:25:49.239Z,0.17
2018-02-13T04:28:16.948Z,0.21
2018-02-13T04:30:44.631Z,0.28
2018-02-13T04:33:12.500Z,0.29
2018-02-13T04:35:40.164Z,0.18
2018-02-13T04:38:07.822Z,0.12
2018-02-13T04:40:35.511Z,0.01
2018-02-13T04:43:03.190Z,-0.01
2018-02-13T04:45:31.115Z,-0.01
2018-02-13T04:47:58.775Z,0.01
2018-02-13T04:50:26.441Z,0.01
2018-02-13T04:52:54.207Z,0.07
2018-02-13T04:55:21.875Z,-0.08
2018-02-13T04:57:49.852Z,-0.06
2018-02-13T05:00:17.520Z,0.07
2018-02-13T05:02:45.194Z,0.12
2018-02-13T05:05:13.953Z,0.21
2018-02-13T05:07:41.620Z,0.11
2018-02-13T05:10:09.319Z,0.00
2018-02-13T05:12:37.205Z,-0.02
2018-02-13T05:15:04.883Z,-0.06
2018-02-13T05:17:32.673Z,-0.09
2018-02-13T05:20:00.351Z,-0.08
2018-02-13T05:22:28.067Z,-0.10
2018-02-13T05:24:55.732Z,-0.16
2018-02-13T05:27:23.408Z,-0.24
2018-02-13T05:29:51.101Z,-0.06
2018-02-13T05:32:18.764Z,0.01
2018-02-13T05:34:46.726Z,0.03
2018-02-13T05:37:15.073Z,0.01
2018-02-13T05:39:43.847Z,-0.02
2018-02-13T05:42:11.539Z,-0.07
2018-02-13T05:44:39.357Z,0.05
2018-02-13T05:47:07.208Z,0.02
2018-02-13T05:49:34.927Z,0.02
2018-02-13T05:52:02.613Z,-0.19
2018-02-13T05:54:30.294Z,-0.13
2018-02-13T05:56:57.972Z,-0.06
2018-02-13T05:59:26.208Z,-0.03
2018-02-13T06:01:53.901Z,-0.01
2018-02-13T06:04:21.564Z,0.04
2018-02-13T06:06:49.265Z,0.04
2018-02-13T06:09:16.950Z,0.04
2018-02-13T06:11:44.815Z,0.01
2018-02-13T06:14:12.483Z,0.04
2018-02-13T06:16:40.148Z,-0.08
2018-02-13T06:19:07.831Z,-0.06
2018-02-13T06:21:35.511Z,-0.08
2018-02-13T06:24:03.443Z,-0.09
2018-02-13T06:26:31.143Z,-0.08
2018-02-13T06:28:58.801Z,-0.05
2018-02-13T06:31:26.522Z,-0.02
2018-02-13T06:33:54.210Z,-0.09
2018-02-13T06:36:21.931Z,-0.12
2018-02-13T06:38:49.640Z,-0.01
2018-02-13T06:41:17.316Z,-0.04
2018-02-13T06:43:45.014Z,-0.06
2018-02-13T06:46:12.701Z,-0.04
2018-02-13T06:48:40.703Z,-0.01
2018-02-13T06:51:08.371Z,0.02
2018-02-13T06:53:36.054Z,0.11
2018-02-13T06:56:03.753Z,0.04
2018-02-13T06:58:31.417Z,0.12
2018-02-13T07:00:59.140Z,0.19
2018-02-13T07:03:26.828Z,0.28
2018-02-13T07:05:54.517Z,0.30
2018-02-13T07:08:22.223Z,0.30
2018-02-13T07:10:49.909Z,0.21
2018-02-13T07:13:17.635Z,0.30
2018-02-13T07:15:45.366Z,0.33
2018-02-13T07:18:13.029Z,0.37
2018-02-13T07:20:40.719Z,0.49
2018-02-13T07:23:08.458Z,0.47
2018-02-13T07:25:36.177Z,0.45
2018-02-13T07:28:03.844Z,0.57
2018-02-13T07:30:31.511Z,0.59
2018-02-13T07:32:59.227Z,0.60
2018-02-13T07:35:26.907Z,0.64
2018-02-13T07:37:54.793Z,0.74
2018-02-13T07:40:22.498Z,0.72
2018-02-13T07:42:50.171Z,0.64
2018-02-13T07:45:17.881Z,0.57
2018-02-13T07:47:45.591Z,0.55
2018-02-13T07:50:13.650Z,0.45
2018-02-13T07:52:41.331Z,0.54
2018-02-13T07:55:09.057Z,0.59
2018-02-13T07:57:37.417Z,0.70
2018-02-13T08:00:05.086Z,0.69
2018-02-13T08:02:33.192Z,0.77
2018-02-13T08:05:01.577Z,0.91
2018-02-13T08:07:29.253Z,0.97
2018-02-13T08:09:56.947Z,1.02
2018-02-13T08:12:24.611Z,0.89
2018-02-13T08:14:52.750Z,0.95
2018-02-13T08:17:20.726Z,1.01
2018-02-13T08:19:48.697Z,1.14
2018-02-13T08:22:16.407Z,1.21
2018-02-13T08:24:44.069Z,1.30
2018-02-13T08:27:11.968Z,1.34
2018-02-13T08:29:39.636Z,1.28
2018-02-13T08:32:07.298Z,1.31
2018-02-13T08:34:34.984Z,1.45
2018-02-13T08:37:02.651Z,1.43
2018-02-13T08:39:30.458Z,1.45
2018-02-13T08:41:58.120Z,1.68
2018-02-13T08:44:25.778Z,1.74
2018-02-13T08:46:53.801Z,1.76
2018-02-13T08:49:21.867Z,1.88
2018-02-13T08:51:50.940Z,1.84
2018-02-13T08:54:18.600Z,2.07
2018-02-13T08:56:47.765Z,2.02
2018-02-13T08:59:15.449Z,2.08
2018-02-13T09:01:43.122Z,2.13
2018-02-13T09:04:10.834Z,2.26
2018-02-13T09:06:38.520Z,2.34
2018-02-13T09:09:06.212Z,2.34
2018-02-13T09:11:33.919Z,2.42
2018-02-13T09:14:01.591Z,2.54
2018-02-13T09:16:29.938Z,2.62
2018-02-13T09:18:57.809Z,2.83
2018-02-13T09:21:25.481Z,2.77
2018-02-13T09:23:54.656Z,2.76
2018-02-13T09:26:22.332Z,2.71
2018-02-13T09:28:50.065Z,3.06
2018-02-13T09:31:17.741Z,2.80
2018-02-13T09:33:45.606Z,2.97
2018-02-13T09:36:13.310Z,3.00
2018-02-13T09:38:42.434Z,3.02
2018-02-13T09:41:10.514Z,2.78
2018-02-13T09:43:38.219Z,3.03
2018-02-13T09:46:06.500Z,3.11
2018-02-13T09:48:34.472Z,3.16
2018-02-13T09:51:02.156Z,3.27
2018-02-13T09:53:29.886Z,3.24
2018-02-13T09:55:58.202Z,3.22
2018-02-13T09:58:26.071Z,3.38
2018-02-13T10:00:53.764Z,3.46
2018-02-13T10:03:21.421Z,3.54
2018-02-13T10:05:49.391Z,3.55
2018-02-13T10:08:17.052Z,3.65
2018-02-13T10:10:44.736Z,3.49
2018-02-13T10:13:12.450Z,3.38
2018-02-13T10:15:40.123Z,3.53
2018-02-13T10:18:08.154Z,3.71
2018-02-13T10:20:36.088Z,3.72
2018-02-13T10:23:03.763Z,3.61
2018-02-13T10:25:31.469Z,3.90
2018-02-13T10:27:59.199Z,3.94
2018-02-13T10:30:26.935Z,4.09
2018-02-13T10:32:54.792Z,4.00
2018-02-13T10:35:22.954Z,4.11
2018-02-13T10:37:50.682Z,4.21
2018-02-13T10:40:18.398Z,4.33
2018-02-13T10:42:46.398Z,4.21
2018-02-13T10:45:14.069Z,4.05
2018-02-13T10:47:41.940Z,4.01
2018-02-13T10:50:09.916Z,3.80
2018-02-13T10:52:37.606Z,3.95
2018-02-13T10:55:05.620Z,3.94
2018-02-13T10:57:33.345Z,4.04
2018-02-13T11:00:01.020Z,4.04
2018-02-13T11:02:28.796Z,4.21
2018-02-13T11:04:56.465Z,4.25
2018-02-13T11:07:24.171Z,4.46
2018-02-13T11:09:51.852Z,4.52
2018-02-13T11:12:19.522Z,4.67
2018-02-13T11:14:47.575Z,4.90
2018-02-13T11:17:16.348Z,5.02
2018-02-13T11:19:44.622Z,4.69
2018-02-13T11:22:12.474Z,4.81
2018-02-13T11:24:40.203Z,5.03
2018-02-13T11:27:07.899Z,5.06
2018-02-13T11:29:35.606Z,4.84
2018-02-13T11:32:03.423Z,4.63
2018-02-13T11:34:31.095Z,4.65
2018-02-13T11:36:58.756Z,4.78
2018-02-13T11:39:26.523Z,4.67
2018-02-13T11:41:54.183Z,4.59
2018-02-13T11:44:22.273Z,4.67
2018-02-13T11:46:50.197Z,4.76
2018-02-13T11:49:18.307Z,4.84
2018-02-13T11:51:46.304Z,4.55
2018-02-13T11:54:14.134Z,4.76
2018-02-13T11:56:41.987Z,4.83
2018-02-13T11:59:09.652Z,4.80
2018-02-13T12:01:37.319Z,4.98
2018-02-13T12:04:05.038Z,4.86
2018-02-13T12:06:32.729Z,5.03
2018-02-13T12:09:00.429Z,5.18
2018-02-13T12:11:28.175Z,5.08
2018-02-13T12:13:55.767Z,5.12
2018-02-13T12:16:23.440Z,4.84
2018-02-13T12:18:51.486Z,4.86
2018-02-13T12:21:19.759Z,4.84
2018-02-13T12:23:47.483Z,4.83
2018-02-13T12:26:15.144Z,4.87
2018-02-13T12:28:42.855Z,4.93
2018-02-13T12:31:10.552Z,4.97
2018-02-13T12:33:38.976Z,4.92
2018-02-13T12:36:06.671Z,5.05
2018-02-13T12:38:34.361Z,5.11
2018-02-13T12:41:02.068Z,5.28
2018-02-13T12:43:29.746Z,5.27
2018-02-13T12:45:57.892Z,5.38
2018-02-13T12:48:25.550Z,6.23
2018-02-13T12:50:53.663Z,7.32
2018-02-13T12:53:21.732Z,8.36
2018-02-13T12:55:49.333Z,9.60
2018-02-13T12:58:17.138Z,10.37
2018-02-13T13:00:44.738Z,11.16
2018-02-13T13:03:12.389Z,12.26
2018-02-13T13:05:40.005Z,11.22
2018-02-13T13:08:07.741Z,10.58
2018-02-13T13:10:35.369Z,9.40
2018-02-13T13:13:02.953Z,8.63
2018-02-13T13:15:30.543Z,8.22
2018-02-13T13:17:58.166Z,7.72
2018-02-13T13:20:26.221Z,7.44
2018-02-13T13:22:54.392Z,7.86
2018-02-13T13:25:21.983Z,8.72
2018-02-13T13:27:49.587Z,9.81
2018-02-13T13:30:20.641Z,10.78
2018-02-13T13:32:48.234Z,11.64
2018-02-13T13:35:15.849Z,11.96
2018-02-13T13:37:45.463Z,11.85
2018-02-13T13:40:13.127Z,12.22
2018-02-13T13:42:40.740Z,12.57
2018-02-13T13:45:08.340Z,12.28
2018-02-13T13:47:36.371Z,12.32
2018-02-13T13:50:03.971Z,12.56
2018-02-13T13:52:32.721Z,12.24
2018-02-13T13:55:00.769Z,12.19
2018-02-13T13:57:28.364Z,11.82
2018-02-13T13:59:56.019Z,11.88
2018-02-13T14:02:23.620Z,11.03
2018-02-13T14:04:54.363Z,11.70
2018-02-13T14:07:22.443Z,11.50
2018-02-13T14:09:50.035Z,10.98
2018-02-13T14:12:17.649Z,10.51
2018-02-13T14:14:45.240Z,10.49
2018-02-13T14:17:18.891Z,10.56
2018-02-13T14:19:46.626Z,9.71
2018-02-13T14:22:14.716Z,9.63
2018-02-13T14:24:42.837Z,10.10
2018-02-13T14:27:12.614Z,9.64
2018-02-13T14:29:40.422Z,9.78
2018-02-13T14:32:08.075Z,10.61
2018-02-13T14:34:36.444Z,10.91
2018-02-13T14:37:05.320Z,11.43
2018-02-13T14:39:32.927Z,11.90
2018-02-13T14:42:02.612Z,11.39
2018-02-13T14:44:30.434Z,10.83
2018-02-13T14:46:58.265Z,9.47
2018-02-13T14:49:25.954Z,8.51
2018-02-13T14:51:53.734Z,8.14
2018-02-13T14:54:30.355Z,8.19
2018-02-13T14:56:58.267Z,7.81
2018-02-13T14:59:25.865Z,7.49
2018-02-13T15:01:53.472Z,7.66
2018-02-13T15:04:21.137Z,7.70
2018-02-13T15:06:49.166Z,7.61
2018-02-13T15:09:16.752Z,7.39
2018-02-13T15:11:44.365Z,7.34
2018-02-13T15:14:11.997Z,6.81
2018-02-13T15:16:40.933Z,6.73
2018-02-13T15:19:08.556Z,6.13
2018-02-13T15:21:36.349Z,5.95
2018-02-13T15:24:03.963Z,5.80
2018-02-13T15:26:31.588Z,5.62
2018-02-13T15:28:59.635Z,5.64
2018-02-13T15:31:27.220Z,5.51
2018-02-13T15:33:54.908Z,5.44
2018-02-13T15:36:22.527Z,5.49
2018-02-13T15:38:50.247Z,5.11
2018-02-13T15:41:17.915Z,5.27
2018-02-13T15:43:45.579Z,5.17
2018-02-13T15:46:13.159Z,5.00
2018-02-13T15:48:40.845Z,4.84
2018-02-13T15:51:08.514Z,4.94
2018-02-13T15:53:36.440Z,4.86
2018-02-13T15:56:04.582Z,4.87
2018-02-13T15:58:32.253Z,4.97
2018-02-13T16:00:59.883Z,5.00
2018-02-13T16:03:27.550Z,4.84
2018-02-13T16:05:55.614Z,4.75
2018-02-13T16:08:23.271Z,4.58
2018-02-13T16:10:50.924Z,4.60
2018-02-13T16:13:18.604Z,4.57
2018-02-13T16:15:46.193Z,4.33
2018-02-13T16:18:13.908Z,4.37
2018-02-13T16:20:41.571Z,4.31
2018-02-13T16:23:09.239Z,4.07
2018-02-13T16:25:36.962Z,4.09
2018-02-13T16:28:04.626Z,3.98
2018-02-13T16:30:32.611Z,4.02
2018-02-13T16:33:00.294Z,3.99
2018-02-13T16:35:27.963Z,3.99
2018-02-13T16:37:55.659Z,3.96
2018-02-13T16:40:23.334Z,3.78
2018-02-13T16:42:51.161Z,3.90
2018-02-13T16:45:18.925Z,3.91
2018-02-13T16:47:46.898Z,3.83
2018-02-13T16:50:14.938Z,3.89
2018-02-13T16:52:42.595Z,3.84
2018-02-13T16:55:10.503Z,3.83
2018-02-13T16:57:38.175Z,3.80
2018-02-13T17:00:05.853Z,3.78
2018-02-13T17:02:33.542Z,3.74
2018-02-13T17:05:01.215Z,3.67
2018-02-13T17:07:28.911Z,3.73
2018-02-13T17:09:56.579Z,3.69
2018-02-13T17:12:24.234Z,3.65
2018-02-13T17:14:51.924Z,3.66
2018-02-13T17:17:19.596Z,3.58
2018-02-13T17:19:47.320Z,3.55
2018-02-13T17:22:14.998Z,3.54
2018-02-13T17:24:42.674Z,3.53
2018-02-13T17:27:10.383Z,3.49
2018-02-13T17:29:38.074Z,3.26
2018-02-13T17:32:05.942Z,3.31
2018-02-13T17:34:33.616Z,3.21
2018-02-13T17:37:01.271Z,3.13
2018-02-13T17:39:28.947Z,3.12
2018-02-13T17:41:56.690Z,3.04
2018-02-13T17:44:24.866Z,3.21
2018-02-13T17:46:52.531Z,3.06
2018-02-13T17:49:20.195Z,2.99
2018-02-13T17:51:47.883Z,3.01
2018-02-13T17:54:15.544Z,2.97
2018-02-13T17:56:44.045Z,3.03
2018-02-13T17:59:11.836Z,2.96
2018-02-13T18:01:39.492Z,3.08
2018-02-13T18:04:07.447Z,3.08
2018-02-13T18:06:35.125Z,3.07
2018-02-13T18:09:02.863Z,2.94
2018-02-13T18:11:30.601Z,2.88
2018-02-13T18:13:58.362Z,2.78
2018-02-13T18:16:26.038Z,2.74
2018-02-13T18:18:53.699Z,2.82
2018-02-13T18:21:21.635Z,2.79
2018-02-13T18:23:49.298Z,2.78
2018-02-13T18:26:16.966Z,2.83
2018-02-13T18:28:44.667Z,2.78
2018-02-13T18:31:12.326Z,2.79
2018-02-13T18:33:40.291Z,2.77
2018-02-13T18:36:07.968Z,2.72
2018-02-13T18:38:35.658Z,2.73
2018-02-13T18:41:03.327Z,2.78
2018-02-13T18:43:31.005Z,2.82
2018-02-13T18:45:58.988Z,2.57
2018-02-13T18:48:26.887Z,2.69
2018-02-13T18:50:54.549Z,2.70
2018-02-13T18:53:22.212Z,2.67
2018-02-13T18:55:49.924Z,2.71
2018-02-13T18:58:17.603Z,2.64
2018-02-13T19:00:45.312Z,2.34
2018-02-13T19:03:13.020Z,2.39
2018-02-13T19:05:40.888Z,2.45
2018-02-13T19:08:08.867Z,2.44
2018-02-13T19:10:36.559Z,2.56
2018-02-13T19:13:04.251Z,2.56
2018-02-13T19:15:31.895Z,2.57
2018-02-13T19:17:59.953Z,2.59
2018-02-13T19:20:27.613Z,2.44
2018-02-13T19:22:55.306Z,2.44
2018-02-13T19:42:35.597Z,2.41
2018-02-13T19:45:03.243Z,2.34
2018-02-13T19:47:30.924Z,2.34
2018-02-13T19:49:58.590Z,2.26
2018-02-13T19:52:26.275Z,2.29
2018-02-13T19:54:53.931Z,2.17
2018-02-13T19:57:21.981Z,2.13
2018-02-13T19:59:49.644Z,1.94
2018-02-13T20:02:17.307Z,1.99
2018-02-13T20:04:44.989Z,2.07
2018-02-13T20:07:12.647Z,2.07
2018-02-13T20:09:40.392Z,2.03
2018-02-13T20:12:08.056Z,2.14
2018-02-13T20:14:35.735Z,2.16
2018-02-13T20:17:03.399Z,2.15
2018-02-13T20:19:31.088Z,2.08
2018-02-13T20:21:58.756Z,2.05
2018-02-13T20:24:26.561Z,2.13
2018-02-13T20:26:54.227Z,2.03
2018-02-13T20:29:21.909Z,2.01
2018-02-13T20:31:49.580Z,2.02
2018-02-13T20:34:17.633Z,1.79
2018-02-13T20:36:45.398Z,1.68
2018-02-13T20:39:13.057Z,1.58
2018-02-13T20:41:40.737Z,1.58
2018-02-13T20:44:08.423Z,1.62
2018-02-13T20:46:36.115Z,1.74
2018-02-13T20:49:03.775Z,1.64
2018-02-13T20:51:31.458Z,1.46
2018-02-13T20:53:59.222Z,1.29
2018-02-13T20:56:26.876Z,1.25
2018-02-13T20:58:54.561Z,1.32
2018-02-13T21:01:22.216Z,1.41
2018-02-13T21:03:50.094Z,1.53
2018-02-13T21:06:17.762Z,1.58
2018-02-13T21:08:45.431Z,1.56
2018-02-13T21:11:13.129Z,1.49
2018-02-13T21:13:40.813Z,1.56
2018-02-13T21:16:08.536Z,1.59
2018-02-13T21:18:36.193Z,1.59
2018-02-13T21:21:03.883Z,1.60
2018-02-13T21:23:31.540Z,1.68
2018-02-13T21:25:59.223Z,1.58
2018-02-13T21:28:26.877Z,1.61
2018-02-13T21:30:54.557Z,1.60
2018-02-13T21:33:22.212Z,1.47
2018-02-13T21:35:49.865Z,1.45
2018-02-13T21:38:17.559Z,1.46
2018-02-13T21:40:45.235Z,1.13
2018-02-13T21:43:13.229Z,1.27
2018-02-13T21:45:40.891Z,1.27
2018-02-13T21:48:08.540Z,1.36
2018-02-13T21:50:36.223Z,1.33
2018-02-13T21:53:03.873Z,1.02
2018-02-13T21:55:31.565Z,0.83
2018-02-13T21:57:59.282Z,0.90
2018-02-13T22:00:26.968Z,0.86
2018-02-13T22:02:54.632Z,0.96
2018-02-13T22:05:22.322Z,1.02
2018-02-13T22:07:50.004Z,0.88
2018-02-13T22:10:17.704Z,0.98
2018-02-13T22:12:45.367Z,0.97
2018-02-13T22:15:13.059Z,1.06
2018-02-13T22:17:40.730Z,1.04
2018-02-13T22:20:08.413Z,1.07
2018-02-13T22:22:36.082Z,0.95
2018-02-13T22:25:03.964Z,0.90
2018-02-13T22:27:31.638Z,0.74
2018-02-13T22:29:59.313Z,0.66
2018-02-13T22:32:27.015Z,0.70
2018-02-13T22:34:54.693Z,0.75
2018-02-13T22:37:22.381Z,0.77
2018-02-13T22:39:50.051Z,0.63
2018-02-13T22:42:17.744Z,0.61
2018-02-13T22:44:45.399Z,0.65
2018-02-13T22:47:13.098Z,0.63
2018-02-13T22:49:40.762Z,0.74
2018-02-13T22:52:08.453Z,0.73
2018-02-13T22:54:36.140Z,0.71
2018-02-13T22:57:03.826Z,0.71
2018-02-13T22:59:31.495Z,0.45
2018-02-13T23:01:59.479Z,0.63
2018-02-13T23:04:27.149Z,0.60
2018-02-13T23:06:54.819Z,0.59
2018-02-13T23:09:22.524Z,0.34
2018-02-13T23:11:50.189Z,0.40
2018-02-13T23:14:17.880Z,0.39
2018-02-13T23:16:45.536Z,0.55
2018-02-13T23:19:14.214Z,0.49
2018-02-13T23:21:41.882Z,0.47
2018-02-13T23:24:09.570Z,0.47
2018-02-13T23:26:37.236Z,0.51
2018-02-13T23:29:04.922Z,0.45
2018-02-13T23:31:32.584Z,0.51
2018-02-13T23:34:00.313Z,0.35
2018-02-13T23:36:27.970Z,0.10
2018-02-13T23:38:55.631Z,0.02
2018-02-13T23:41:23.346Z,0.09
2018-02-13T23:43:51.059Z,0.09
2018-02-13T23:46:18.749Z,0.20
2018-02-13T23:48:46.419Z,0.27
2018-02-13T23:51:14.112Z,0.19
2018-02-13T23:53:41.785Z,0.20
2018-02-13T23:56:09.468Z,0.14
2018-02-13T23:58:37.169Z,-0.07
